Stevinson, California
Current Conditions -  °F | °C
As of 12:45 PM on Saturday 22 Nov 2014 (Local Time) from KMER Reporting Station
Haze Haze  
Wind Chill: 14°   Ceiling: 2300
Heat Index: 14°   Visibility: 3mi
Dew Point: 14°   Wind: 12mph
Humidity: 100%   Direction: 160°SSE
Pressure: 30.14"   Gusts: NA
Location:  37.33°N, 120.85°W
Report Text: KMER 222045Z 16010KT 3SM HZ FEW015 OVC023 14/14 A3014
Loading
Personal Weather Stations






























Interactive Weather Map New forecast layout! Learn more

10-Day Weather Forecast

Advertisements
Track Severe Weather on mobile